createdAt,value
2019-03-28T00:01:50.436Z,8.50
2019-03-28T00:04:20.343Z,8.10
2019-03-28T00:06:50.381Z,9.07
2019-03-28T00:09:20.320Z,7.90
2019-03-28T00:11:50.386Z,8.80
2019-03-28T00:14:20.330Z,7.77
2019-03-28T00:16:50.370Z,8.50
2019-03-28T00:19:20.322Z,7.87
2019-03-28T00:21:50.300Z,8.53
2019-03-28T00:24:24.638Z,7.90
2019-03-28T00:26:54.636Z,7.93
2019-03-28T00:29:24.594Z,7.77
2019-03-28T00:31:56.339Z,7.70
2019-03-28T00:34:26.296Z,8.00
2019-03-28T00:36:56.278Z,8.27
2019-03-28T00:39:26.324Z,8.07
2019-03-28T00:41:56.483Z,8.60
2019-03-28T00:44:26.431Z,8.50
2019-03-28T00:46:56.477Z,8.73
2019-03-28T00:49:26.413Z,9.80
2019-03-28T00:51:56.429Z,9.60
2019-03-28T00:54:26.377Z,9.00
2019-03-28T00:56:56.389Z,9.77
2019-03-28T00:59:26.371Z,9.37
2019-03-28T01:01:56.359Z,9.97
2019-03-28T01:04:26.298Z,10.30
2019-03-28T01:06:57.175Z,9.87
2019-03-28T01:09:27.269Z,10.27
2019-03-28T01:11:57.389Z,10.43
2019-03-28T01:14:27.476Z,10.87
2019-03-28T01:16:57.473Z,10.70
2019-03-28T01:19:27.501Z,11.30
2019-03-28T01:21:57.549Z,11.47
2019-03-28T01:24:27.534Z,11.83
2019-03-28T01:26:58.853Z,10.93
2019-03-28T01:29:29.274Z,11.53
2019-03-28T01:31:59.297Z,12.40
2019-03-28T01:34:29.340Z,12.13
2019-03-28T01:36:59.387Z,10.80
2019-03-28T01:39:29.365Z,11.73
2019-03-28T01:41:59.316Z,11.83
2019-03-28T01:44:29.274Z,11.20
2019-03-28T01:46:59.250Z,11.00
2019-03-28T01:49:29.208Z,11.73
2019-03-28T01:51:59.177Z,11.90
2019-03-28T01:54:29.317Z,11.10
2019-03-28T01:57:10.264Z,12.20
2019-03-28T01:59:31.132Z,11.20
2019-03-28T02:02:01.447Z,11.63
2019-03-28T02:04:31.406Z,11.60
2019-03-28T02:07:01.448Z,11.83
2019-03-28T02:09:32.317Z,10.70
2019-03-28T02:12:02.471Z,10.43
2019-03-28T02:14:32.538Z,10.47
2019-03-28T02:17:02.762Z,10.50
2019-03-28T02:19:32.756Z,10.40
2019-03-28T02:22:02.769Z,10.80
2019-03-28T02:24:32.754Z,10.37
2019-03-28T02:27:02.765Z,10.40
2019-03-28T02:29:33.217Z,9.93
2019-03-28T02:32:03.440Z,9.77
2019-03-28T02:34:33.449Z,10.70
2019-03-28T02:37:03.591Z,10.27
2019-03-28T02:39:33.616Z,10.07
2019-03-28T02:42:03.566Z,9.83
2019-03-28T02:44:33.532Z,9.40
2019-03-28T02:47:03.906Z,9.60
2019-03-28T02:49:33.869Z,10.20
2019-03-28T02:52:03.941Z,9.73
2019-03-28T02:54:33.978Z,9.33
2019-03-28T02:57:03.962Z,9.97
2019-03-28T02:59:33.993Z,10.73
2019-03-28T03:02:03.999Z,10.40
2019-03-28T03:04:34.031Z,10.47
2019-03-28T03:07:03.965Z,11.37
2019-03-28T03:09:34.037Z,10.77
2019-03-28T03:12:04.762Z,11.30
2019-03-28T03:14:34.820Z,11.27
2019-03-28T03:17:04.912Z,10.47
2019-03-28T03:19:34.951Z,11.60
2019-03-28T03:22:05.120Z,11.37
2019-03-28T03:24:35.066Z,10.77
2019-03-28T03:27:05.319Z,12.27
2019-03-28T03:29:35.285Z,11.03
2019-03-28T03:32:05.265Z,11.43
2019-03-28T03:34:35.321Z,10.67
2019-03-28T03:37:05.588Z,11.50
2019-03-28T03:39:35.704Z,10.97
2019-03-28T03:42:06.031Z,11.37
2019-03-28T03:44:36.025Z,10.63
2019-03-28T03:47:06.199Z,10.57
2019-03-28T03:49:36.154Z,10.40
2019-03-28T03:52:06.234Z,10.83
2019-03-28T03:54:36.300Z,10.43
2019-03-28T03:57:06.271Z,10.83
2019-03-28T03:59:36.231Z,10.80
2019-03-28T04:02:06.274Z,10.83
2019-03-28T04:04:36.247Z,9.93
2019-03-28T04:07:06.263Z,10.00
2019-03-28T04:09:36.245Z,11.00
2019-03-28T04:12:06.546Z,9.70
2019-03-28T04:14:36.500Z,10.40
2019-03-28T04:17:06.490Z,10.03
2019-03-28T04:19:36.500Z,10.60
2019-03-28T04:22:06.773Z,10.67
2019-03-28T04:24:36.734Z,10.70
2019-03-28T04:27:06.745Z,10.03
2019-03-28T04:29:36.698Z,10.60
2019-03-28T04:32:06.749Z,10.90
2019-03-28T04:34:36.795Z,10.00
2019-03-28T04:37:06.782Z,11.33
2019-03-28T04:39:36.811Z,11.90
2019-03-28T04:42:06.870Z,10.47
2019-03-28T04:44:36.942Z,10.20
2019-03-28T04:47:07.210Z,11.00
2019-03-28T04:49:37.194Z,10.43
2019-03-28T04:52:07.238Z,10.37
2019-03-28T04:54:37.210Z,9.40
2019-03-28T04:57:07.275Z,10.20
2019-03-28T04:59:37.256Z,10.53
2019-03-28T05:02:07.368Z,11.33
2019-03-28T05:04:37.423Z,9.83
2019-03-28T05:07:07.645Z,10.30
2019-03-28T05:09:37.635Z,10.60
2019-03-28T05:12:07.730Z,10.23
2019-03-28T05:14:37.774Z,10.43
2019-03-28T05:17:07.879Z,9.60
2019-03-28T05:19:37.964Z,10.20
2019-03-28T05:22:07.963Z,9.57
2019-03-28T05:24:37.930Z,9.67
2019-03-28T05:27:07.986Z,10.63
2019-03-28T05:29:37.965Z,10.37
2019-03-28T05:32:08.041Z,10.80
2019-03-28T05:34:38.017Z,9.80
2019-03-28T05:37:07.993Z,9.90
2019-03-28T05:39:37.973Z,9.80
2019-03-28T05:42:07.951Z,9.80
2019-03-28T05:44:37.979Z,10.00
2019-03-28T05:47:07.953Z,9.93
2019-03-28T05:49:37.941Z,10.30
2019-03-28T05:52:07.885Z,9.57
2019-03-28T05:54:37.875Z,8.67
2019-03-28T05:57:13.915Z,9.73
2019-03-28T05:59:43.967Z,9.77
2019-03-28T06:02:14.118Z,10.30
2019-03-28T06:04:44.086Z,9.67
2019-03-28T06:07:14.051Z,9.83
2019-03-28T06:09:44.530Z,9.10
2019-03-28T06:12:14.762Z,8.80
2019-03-28T06:14:44.877Z,9.13
2019-03-28T06:17:14.918Z,8.87
2019-03-28T06:19:44.911Z,8.40
2019-03-28T06:22:14.954Z,9.13
2019-03-28T06:24:44.946Z,8.27
2019-03-28T06:27:14.959Z,8.80
2019-03-28T06:29:45.039Z,8.90
2019-03-28T06:32:15.160Z,8.23
2019-03-28T06:34:45.320Z,8.57
2019-03-28T06:37:15.298Z,8.00
2019-03-28T06:39:45.354Z,8.90
2019-03-28T06:42:15.487Z,9.13
2019-03-28T06:44:45.525Z,8.53
2019-03-28T06:47:15.484Z,8.47
2019-03-28T06:49:48.254Z,7.57
2019-03-28T06:52:18.286Z,7.83
2019-03-28T06:54:48.284Z,8.37
2019-03-28T06:57:18.977Z,7.90
2019-03-28T06:59:49.282Z,7.80
2019-03-28T07:02:21.754Z,7.70
2019-03-28T07:04:51.070Z,7.80
2019-03-28T07:07:21.041Z,7.33
2019-03-28T07:09:51.122Z,7.50
2019-03-28T07:12:21.161Z,7.30
2019-03-28T07:14:51.199Z,7.83
2019-03-28T07:17:21.310Z,8.73
2019-03-28T07:19:51.334Z,7.83
2019-03-28T07:22:21.280Z,8.00
2019-03-28T07:24:51.374Z,7.57
2019-03-28T07:27:21.393Z,7.93
2019-03-28T07:29:51.636Z,9.00
2019-03-28T07:32:21.795Z,7.80
2019-03-28T07:34:51.915Z,7.50
2019-03-28T07:37:21.873Z,8.40
2019-03-28T07:39:52.069Z,8.07
2019-03-28T07:42:22.058Z,7.63
2019-03-28T07:44:52.096Z,7.67
2019-03-28T07:47:22.134Z,7.43
2019-03-28T07:49:52.201Z,8.10
2019-03-28T07:52:22.184Z,8.60
2019-03-28T07:54:52.263Z,7.80
2019-03-28T07:57:22.307Z,7.33
2019-03-28T08:00:03.515Z,8.83
2019-03-28T08:02:24.531Z,7.83
2019-03-28T08:04:54.492Z,7.33
2019-03-28T08:07:25.281Z,7.53
2019-03-28T08:09:55.278Z,7.40
2019-03-28T08:12:25.299Z,7.27
2019-03-28T08:14:55.349Z,7.93
2019-03-28T08:17:25.360Z,7.60
2019-03-28T08:19:55.401Z,7.50
2019-03-28T08:22:25.489Z,7.70
2019-03-28T08:24:55.508Z,7.60
2019-03-28T08:27:25.597Z,8.17
2019-03-28T08:29:57.828Z,7.83
2019-03-28T08:32:27.927Z,7.80
2019-03-28T08:34:58.182Z,8.37
2019-03-28T08:37:28.460Z,7.20
2019-03-28T08:39:58.526Z,8.00
2019-03-28T08:42:28.594Z,7.23
2019-03-28T08:44:58.545Z,7.27
2019-03-28T08:47:28.597Z,7.27
2019-03-28T08:49:58.897Z,7.40
2019-03-28T08:52:29.076Z,6.27
2019-03-28T08:54:59.059Z,6.07
2019-03-28T08:57:29.128Z,6.63
2019-03-28T08:59:59.253Z,7.07
2019-03-28T09:02:29.286Z,6.77
2019-03-28T09:04:59.330Z,7.20
2019-03-28T09:07:29.438Z,6.07
2019-03-28T09:09:59.717Z,5.80
2019-03-28T09:12:29.730Z,5.40
2019-03-28T09:14:59.807Z,5.47
2019-03-28T09:17:29.976Z,5.50
2019-03-28T09:20:00.004Z,5.80
2019-03-28T09:22:30.343Z,5.57
2019-03-28T09:25:00.783Z,5.20
2019-03-28T09:27:30.936Z,5.87
2019-03-28T09:30:01.062Z,5.63
2019-03-28T09:32:31.534Z,5.47
2019-03-28T09:35:01.850Z,5.27
2019-03-28T09:37:31.909Z,6.03
2019-03-28T09:40:02.049Z,5.77
2019-03-28T09:42:32.117Z,5.37
2019-03-28T09:45:02.346Z,5.30
2019-03-28T09:47:32.447Z,5.70
2019-03-28T09:50:02.716Z,5.13
2019-03-28T09:52:32.717Z,5.53
2019-03-28T09:55:02.757Z,5.43
2019-03-28T09:57:32.877Z,5.60
2019-03-28T10:00:03.111Z,5.80
2019-03-28T10:02:33.161Z,5.30
2019-03-28T10:05:03.344Z,5.33
2019-03-28T10:07:33.363Z,5.40
2019-03-28T10:10:04.206Z,5.43
2019-03-28T10:12:34.435Z,4.83
2019-03-28T10:15:05.199Z,5.03
2019-03-28T10:17:35.520Z,5.20
2019-03-28T10:20:05.880Z,4.70
2019-03-28T10:22:35.938Z,4.93
2019-03-28T10:25:06.311Z,4.60
2019-03-28T10:27:36.413Z,4.77
2019-03-28T10:30:07.276Z,4.07
2019-03-28T10:32:37.588Z,4.80
2019-03-28T10:35:07.945Z,3.97
2019-03-28T10:37:38.018Z,3.93
2019-03-28T10:40:08.585Z,4.17
2019-03-28T10:42:38.671Z,4.17
2019-03-28T10:45:09.063Z,3.80
2019-03-28T10:47:39.133Z,5.47
2019-03-28T10:50:09.263Z,4.90
2019-03-28T10:52:39.346Z,4.73
2019-03-28T10:55:09.565Z,5.00
2019-03-28T10:57:39.717Z,4.73
2019-03-28T11:00:23.186Z,5.03
2019-03-28T11:02:42.057Z,4.40
2019-03-28T11:05:12.121Z,4.10
2019-03-28T11:07:42.177Z,5.13
2019-03-28T11:10:12.312Z,5.47
2019-03-28T11:12:42.484Z,4.90
2019-03-28T11:15:12.579Z,5.23
2019-03-28T11:17:42.646Z,5.10
2019-03-28T11:20:12.897Z,5.77
2019-03-28T11:22:42.900Z,4.83
2019-03-28T11:25:13.045Z,4.20
2019-03-28T11:27:43.024Z,4.90
2019-03-28T11:30:13.638Z,4.60
2019-03-28T11:32:43.713Z,4.93
2019-03-28T11:35:14.517Z,5.00
2019-03-28T11:37:44.644Z,4.80
2019-03-28T11:40:14.919Z,5.10
2019-03-28T11:42:44.951Z,4.73
2019-03-28T11:45:15.248Z,5.93
2019-03-28T11:47:45.224Z,5.83
2019-03-28T11:50:17.229Z,4.27
2019-03-28T11:52:47.450Z,4.80
2019-03-28T11:55:17.539Z,4.70
2019-03-28T11:57:47.557Z,4.67
2019-03-28T12:00:18.925Z,6.13
2019-03-28T12:02:49.436Z,4.73
2019-03-28T12:05:19.586Z,5.50
2019-03-28T12:07:49.549Z,4.37
2019-03-28T12:10:20.556Z,4.67
2019-03-28T12:12:50.696Z,4.87
2019-03-28T12:15:20.837Z,5.37
2019-03-28T12:17:50.833Z,4.70
2019-03-28T12:20:20.823Z,4.37
2019-03-28T12:22:50.898Z,4.27
2019-03-28T12:25:20.910Z,4.30
2019-03-28T12:27:50.887Z,4.57
2019-03-28T12:30:21.461Z,5.03
2019-03-28T12:32:51.639Z,4.80
2019-03-28T12:35:21.737Z,4.73
2019-03-28T12:37:52.013Z,4.37
2019-03-28T12:40:22.185Z,3.93
2019-03-28T12:42:52.224Z,3.87
2019-03-28T12:45:22.207Z,4.17
2019-03-28T12:47:52.295Z,4.60
2019-03-28T12:50:22.664Z,4.50
2019-03-28T12:52:52.677Z,4.10
2019-03-28T12:55:22.821Z,4.90
2019-03-28T12:57:53.113Z,4.57
2019-03-28T13:00:34.887Z,4.43
2019-03-28T13:03:05.301Z,4.60
2019-03-28T13:05:35.425Z,4.97
2019-03-28T13:08:05.677Z,5.40
2019-03-28T13:10:36.346Z,6.50
2019-03-28T13:13:06.704Z,5.17
2019-03-28T13:15:36.870Z,6.00
2019-03-28T13:18:07.015Z,5.47
2019-03-28T13:20:37.127Z,5.23
2019-03-28T13:23:07.290Z,5.97
2019-03-28T13:25:37.262Z,5.30
2019-03-28T13:28:07.353Z,5.20
2019-03-28T13:30:37.433Z,5.03
2019-03-28T13:33:07.554Z,5.40
2019-03-28T13:35:37.769Z,4.43
2019-03-28T13:38:07.808Z,6.30
2019-03-28T13:40:37.800Z,4.97
2019-03-28T13:43:07.951Z,4.90
2019-03-28T13:45:37.990Z,6.50
2019-03-28T13:48:08.049Z,4.33
2019-03-28T13:50:38.140Z,4.33
2019-03-28T13:53:08.276Z,4.57
2019-03-28T13:55:38.223Z,4.50
2019-03-28T13:58:08.550Z,4.10
2019-03-28T14:00:38.616Z,4.40
2019-03-28T14:03:08.643Z,4.67
2019-03-28T14:05:38.745Z,5.07
2019-03-28T14:08:08.810Z,3.43
2019-03-28T14:10:38.982Z,6.13
2019-03-28T14:13:09.016Z,5.03
2019-03-28T14:15:39.097Z,5.80
2019-03-28T14:18:09.257Z,4.37
2019-03-28T14:20:39.258Z,4.27
2019-03-28T14:23:09.323Z,5.03
2019-03-28T14:25:39.307Z,5.00
2019-03-28T14:28:09.326Z,5.00
2019-03-28T14:30:40.458Z,4.87
2019-03-28T14:33:15.418Z,5.10
2019-03-28T14:35:42.990Z,5.03
2019-03-28T14:38:13.323Z,4.47
2019-03-28T14:40:43.555Z,4.70
2019-03-28T14:43:13.754Z,4.73
2019-03-28T14:45:43.757Z,4.43
2019-03-28T14:48:13.792Z,4.97
2019-03-28T14:50:44.012Z,4.97
2019-03-28T14:53:14.075Z,5.60
2019-03-28T14:55:44.331Z,5.30
2019-03-28T14:58:14.475Z,4.90
2019-03-28T15:00:49.922Z,4.90
2019-03-28T15:03:26.322Z,4.77
2019-03-28T15:05:52.119Z,4.70
2019-03-28T15:08:22.545Z,4.57
2019-03-28T15:10:52.733Z,4.67
2019-03-28T15:13:22.855Z,6.03
2019-03-28T15:15:52.881Z,4.70
2019-03-28T15:18:22.993Z,4.47
2019-03-28T15:20:53.322Z,3.70
2019-03-28T15:23:23.409Z,3.57
2019-03-28T15:25:53.364Z,3.70
2019-03-28T15:28:23.416Z,3.80
2019-03-28T15:30:53.904Z,3.60
2019-03-28T15:33:23.960Z,4.27
2019-03-28T15:35:54.068Z,4.13
2019-03-28T15:38:24.138Z,20.57
2019-03-28T15:40:54.290Z,3.90
2019-03-28T15:43:24.306Z,4.00
2019-03-28T15:45:55.485Z,11.13
2019-03-28T15:48:25.504Z,4.57
2019-03-28T15:50:55.763Z,3.63
2019-03-28T15:53:25.708Z,4.30
2019-03-28T15:55:57.026Z,4.00
2019-03-28T15:58:27.400Z,4.20
2019-03-28T16:00:57.505Z,4.33
2019-03-28T16:03:27.639Z,4.37
2019-03-28T16:05:58.783Z,4.13
2019-03-28T16:08:28.966Z,4.63
2019-03-28T16:10:59.013Z,3.90
2019-03-28T16:13:29.067Z,4.20
2019-03-28T16:15:59.143Z,4.67
2019-03-28T16:18:29.117Z,4.83
2019-03-28T16:20:59.159Z,4.87
2019-03-28T16:23:29.568Z,4.87
2019-03-28T16:25:59.952Z,4.80
2019-03-28T16:28:30.019Z,4.70
2019-03-28T16:31:00.153Z,4.33
2019-03-28T16:33:30.473Z,12.13
2019-03-28T16:36:00.548Z,5.03
2019-03-28T16:38:32.867Z,5.13
2019-03-28T16:41:02.568Z,4.80
2019-03-28T16:43:32.651Z,11.70
2019-03-28T16:46:02.701Z,4.13
2019-03-28T16:48:32.679Z,4.30
2019-03-28T16:51:02.700Z,4.30
2019-03-28T16:53:32.656Z,4.67
2019-03-28T16:56:03.198Z,4.63
2019-03-28T16:58:33.407Z,4.50
2019-03-28T17:01:03.529Z,4.10
2019-03-28T17:03:33.762Z,4.07
2019-03-28T17:06:03.872Z,4.43
2019-03-28T17:08:34.295Z,3.90
2019-03-28T17:11:04.392Z,4.80
2019-03-28T17:13:34.376Z,4.80
2019-03-28T17:16:04.448Z,6.57
2019-03-28T17:18:34.494Z,5.17
2019-03-28T17:21:04.812Z,4.47
2019-03-28T17:23:34.820Z,4.10
2019-03-28T17:26:05.384Z,4.40
2019-03-28T17:28:35.342Z,4.20
2019-03-28T17:31:05.705Z,4.23
2019-03-28T17:33:35.849Z,4.80
2019-03-28T17:36:06.106Z,4.27
2019-03-28T17:38:36.114Z,4.47
2019-03-28T17:41:06.745Z,4.73
2019-03-28T17:43:36.771Z,5.27
2019-03-28T17:46:07.207Z,4.87
2019-03-28T17:48:37.218Z,5.67
2019-03-28T17:51:07.403Z,5.90
2019-03-28T17:53:37.476Z,5.93
2019-03-28T17:56:07.536Z,6.17
2019-03-28T17:58:37.497Z,5.57
2019-03-28T18:01:08.001Z,5.33
2019-03-28T18:03:37.997Z,5.83
2019-03-28T18:06:08.827Z,5.40
2019-03-28T18:08:38.987Z,5.10
2019-03-28T18:11:09.057Z,6.13
2019-03-28T18:13:39.019Z,5.27
2019-03-28T18:16:09.077Z,5.40
2019-03-28T18:18:39.043Z,6.30
2019-03-28T18:21:09.029Z,5.27
2019-03-28T18:23:38.999Z,4.30
2019-03-28T18:26:09.140Z,4.90
2019-03-28T18:28:47.483Z,4.80
2019-03-28T18:31:17.567Z,5.03
2019-03-28T18:33:47.758Z,3.80
2019-03-28T18:36:17.723Z,4.23
2019-03-28T18:38:47.733Z,4.20
2019-03-28T18:41:17.740Z,3.80
2019-03-28T18:43:47.738Z,4.33
2019-03-28T18:46:17.787Z,3.67
2019-03-28T18:48:47.810Z,4.40
2019-03-28T18:51:17.822Z,4.60
2019-03-28T18:53:47.838Z,4.10
2019-03-28T18:56:17.829Z,3.90
2019-03-28T18:58:47.903Z,8.00
2019-03-28T19:01:17.902Z,4.77
2019-03-28T19:03:47.876Z,3.90
2019-03-28T19:06:17.918Z,4.80
2019-03-28T19:08:48.061Z,4.70
2019-03-28T19:11:18.452Z,11.00
2019-03-28T19:13:48.494Z,6.60
2019-03-28T19:16:21.630Z,10.47
2019-03-28T19:18:51.803Z,6.27
2019-03-28T19:21:21.930Z,4.90
2019-03-28T19:23:52.197Z,5.40
2019-03-28T19:26:22.321Z,4.57
2019-03-28T19:28:52.349Z,4.77
2019-03-28T19:31:22.327Z,4.57
2019-03-28T19:33:52.470Z,4.60
2019-03-28T19:36:23.432Z,7.03
2019-03-28T19:38:53.750Z,6.37
2019-03-28T19:41:24.615Z,11.77
2019-03-28T19:43:55.481Z,5.37
2019-03-28T19:46:25.498Z,9.20
2019-03-28T19:48:55.493Z,5.83
2019-03-28T19:51:28.201Z,4.70
2019-03-28T19:53:57.651Z,4.67
2019-03-28T19:56:27.727Z,4.80
2019-03-28T19:58:59.209Z,4.57
2019-03-28T20:01:29.360Z,4.03
2019-03-28T20:03:59.503Z,4.60
2019-03-28T20:06:29.540Z,4.40
2019-03-28T20:08:59.825Z,4.30
2019-03-28T20:11:29.813Z,4.70
2019-03-28T20:14:00.153Z,4.17
2019-03-28T20:16:30.197Z,4.23
2019-03-28T20:19:00.185Z,4.60
2019-03-28T20:21:30.256Z,4.60
2019-03-28T20:24:00.422Z,3.97
2019-03-28T20:26:30.533Z,4.23
2019-03-28T20:29:00.622Z,4.70
2019-03-28T20:31:30.878Z,4.17
2019-03-28T20:34:01.026Z,4.13
2019-03-28T20:36:37.998Z,5.70
2019-03-28T20:39:05.456Z,7.00
2019-03-28T20:41:36.317Z,5.90
2019-03-28T20:44:06.314Z,5.17
2019-03-28T20:46:36.317Z,4.63
2019-03-28T20:49:06.344Z,4.87
2019-03-28T20:51:36.368Z,4.43
2019-03-28T20:54:07.908Z,4.67
2019-03-28T20:56:38.015Z,4.50
2019-03-28T20:59:08.094Z,5.63
2019-03-28T21:01:38.127Z,4.60
2019-03-28T21:04:08.103Z,4.73
2019-03-28T21:06:38.346Z,4.90
2019-03-28T21:09:08.864Z,4.53
2019-03-28T21:11:38.869Z,4.73
2019-03-28T21:14:08.939Z,5.20
2019-03-28T21:16:39.231Z,4.97
2019-03-28T21:19:09.363Z,5.10
2019-03-28T21:21:39.419Z,4.40
2019-03-28T21:24:09.572Z,4.00
2019-03-28T21:26:40.902Z,4.50
2019-03-28T21:29:11.145Z,4.50
2019-03-28T21:31:49.649Z,3.87
2019-03-28T21:34:12.960Z,3.90
2019-03-28T21:36:43.153Z,4.00
2019-03-28T21:39:13.315Z,4.33
2019-03-28T21:41:43.342Z,4.50
2019-03-28T21:44:13.418Z,4.23
2019-03-28T21:46:43.429Z,4.40
2019-03-28T21:49:13.395Z,4.40
2019-03-28T21:51:45.907Z,4.70
2019-03-28T21:54:15.046Z,4.73
2019-03-28T21:56:45.438Z,5.03
2019-03-28T21:59:15.391Z,5.47
2019-03-28T22:01:45.479Z,4.37
2019-03-28T22:04:15.435Z,4.83
2019-03-28T22:06:45.567Z,4.53
2019-03-28T22:09:15.598Z,4.47
2019-03-28T22:11:45.764Z,5.30
2019-03-28T22:14:15.781Z,4.80
2019-03-28T22:16:45.770Z,4.70
2019-03-28T22:19:15.727Z,5.23
2019-03-28T22:21:45.763Z,5.17
2019-03-28T22:24:15.690Z,5.20
2019-03-28T22:26:46.129Z,5.33
2019-03-28T22:29:16.273Z,5.33
2019-03-28T22:31:46.427Z,5.47
2019-03-28T22:34:16.378Z,5.37
2019-03-28T22:36:56.462Z,5.77
2019-03-28T22:39:18.026Z,5.43
2019-03-28T22:41:48.269Z,6.20
2019-03-28T22:44:19.082Z,5.93
2019-03-28T22:46:49.134Z,7.03
2019-03-28T22:49:19.046Z,6.40
2019-03-28T22:51:48.987Z,6.17
2019-03-28T22:54:18.950Z,6.27
2019-03-28T22:56:49.946Z,5.93
2019-03-28T22:59:20.272Z,6.20
2019-03-28T23:01:50.321Z,6.40
2019-03-28T23:04:20.283Z,6.07
2019-03-28T23:06:50.257Z,6.30
2019-03-28T23:09:20.301Z,6.90
2019-03-28T23:11:50.340Z,6.70
2019-03-28T23:14:20.281Z,6.67
2019-03-28T23:16:51.139Z,7.23
2019-03-28T23:19:21.099Z,7.20
2019-03-28T23:21:51.067Z,7.80
2019-03-28T23:24:21.073Z,6.87
2019-03-28T23:26:51.288Z,6.57
2019-03-28T23:29:21.271Z,7.63
2019-03-28T23:31:51.384Z,7.20
2019-03-28T23:34:22.216Z,7.70
2019-03-28T23:36:52.780Z,7.33
2019-03-28T23:39:22.778Z,8.13
2019-03-28T23:41:52.712Z,8.73
2019-03-28T23:44:22.683Z,7.80
2019-03-28T23:46:52.671Z,9.10
2019-03-28T23:49:22.639Z,9.07
2019-03-28T23:51:52.657Z,8.50
2019-03-28T23:54:22.630Z,9.40
2019-03-28T23:56:53.031Z,8.87
2019-03-28T23:59:24.323Z,8.27
